sensor_id;sensor_type;location;lat;lon;timestamp;pressure;altitude;pressure_sealevel;temperature;humidity
41230;BME280;26964;50.428;19.218;2023-02-11T00:02:23;1036.0;;;-2.7;70.8
41230;BME280;26964;50.428;19.218;2023-02-11T00:07:23;1035.9;;;-2.8;70.9
41230;BME280;26964;50.428;19.218;2023-02-11T00:12:33;1035.9;;;-2.9;70.9
41230;BME280;26964;50.428;19.218;2023-02-11T00:17:23;1035.8;;;-2.9;70.9
41230;BME280;26964;50.428;19.218;2023-02-11T00:22:24;1035.7;;;-3.0;70.9
41230;BME280;26964;50.428;19.218;2023-02-11T00:27:23;1035.6;;;-3.1;71.0
41230;BME280;26964;50.428;19.218;2023-02-11T00:32:24;1035.7;;;-3.1;71.0
41230;BME280;26964;50.428;19.218;2023-02-11T00:37:26;1035.6;;;-3.2;71.0
41230;BME280;26964;50.428;19.218;2023-02-11T00:42:23;1035.5;;;-3.3;71.1
41230;BME280;26964;50.428;19.218;2023-02-11T00:47:23;1035.3;;;-3.3;71.1
41230;BME280;26964;50.428;19.218;2023-02-11T00:52:23;1035.2;;;-3.4;71.2
41230;BME280;26964;50.428;19.218;2023-02-11T01:02:23;1034.9;;;-3.5;71.3
41230;BME280;26964;50.428;19.218;2023-02-11T01:07:23;1034.6;;;-3.5;71.5
41230;BME280;26964;50.428;19.218;2023-02-11T01:12:23;1034.4;;;-3.5;71.5
41230;BME280;26964;50.428;19.218;2023-02-11T01:17:23;1034.5;;;-3.5;71.6
41230;BME280;26964;50.428;19.218;2023-02-11T01:22:23;1034.6;;;-3.4;71.6
41230;BME280;26964;50.428;19.218;2023-02-11T01:27:23;1034.6;;;-3.4;71.7
41230;BME280;26964;50.428;19.218;2023-02-11T01:32:23;1034.8;;;-3.4;71.7
41230;BME280;26964;50.428;19.218;2023-02-11T01:37:24;1034.6;;;-3.4;71.7
41230;BME280;26964;50.428;19.218;2023-02-11T01:42:24;1034.5;;;-3.4;71.7
41230;BME280;26964;50.428;19.218;2023-02-11T01:47:23;1034.5;;;-3.4;71.8
41230;BME280;26964;50.428;19.218;2023-02-11T01:52:26;1034.4;;;-3.3;71.9
41230;BME280;26964;50.428;19.218;2023-02-11T01:57:28;1034.4;;;-3.3;71.9
41230;BME280;26964;50.428;19.218;2023-02-11T02:02:28;1034.3;;;-3.3;72.0
41230;BME280;26964;50.428;19.218;2023-02-11T02:07:27;1034.2;;;-3.3;72.1
41230;BME280;26964;50.428;19.218;2023-02-11T02:12:23;1034.1;;;-3.3;72.1
41230;BME280;26964;50.428;19.218;2023-02-11T02:17:27;1034.0;;;-3.2;72.2
41230;BME280;26964;50.428;19.218;2023-02-11T02:32:29;1033.8;;;-3.1;72.4
41230;BME280;26964;50.428;19.218;2023-02-11T02:42:24;1033.4;;;-3.0;72.5
41230;BME280;26964;50.428;19.218;2023-02-11T02:47:25;1033.3;;;-3.0;72.6
41230;BME280;26964;50.428;19.218;2023-02-11T02:57:28;1033.0;;;-3.0;72.6
41230;BME280;26964;50.428;19.218;2023-02-11T03:02:28;1033.0;;;-2.9;72.6
41230;BME280;26964;50.428;19.218;2023-02-11T03:07:26;1032.9;;;-2.9;72.7
41230;BME280;26964;50.428;19.218;2023-02-11T03:12:23;1033.0;;;-2.9;72.7
41230;BME280;26964;50.428;19.218;2023-02-11T03:17:23;1033.0;;;-2.8;72.7
41230;BME280;26964;50.428;19.218;2023-02-11T03:22:29;1032.9;;;-2.8;72.8
41230;BME280;26964;50.428;19.218;2023-02-11T03:27:27;1032.9;;;-2.8;72.8
41230;BME280;26964;50.428;19.218;2023-02-11T03:32:25;1032.8;;;-2.8;72.8
41230;BME280;26964;50.428;19.218;2023-02-11T03:37:27;1032.8;;;-2.8;72.9
41230;BME280;26964;50.428;19.218;2023-02-11T03:42:23;1032.6;;;-2.7;72.9
41230;BME280;26964;50.428;19.218;2023-02-11T03:47:24;1032.5;;;-2.7;72.9
41230;BME280;26964;50.428;19.218;2023-02-11T03:52:31;1032.4;;;-2.7;73.0
41230;BME280;26964;50.428;19.218;2023-02-11T03:57:22;1032.1;;;-2.6;73.0
41230;BME280;26964;50.428;19.218;2023-02-11T04:02:24;1032.0;;;-2.6;73.1
41230;BME280;26964;50.428;19.218;2023-02-11T04:07:22;1031.8;;;-2.6;73.1
41230;BME280;26964;50.428;19.218;2023-02-11T04:12:23;1031.7;;;-2.5;73.1
41230;BME280;26964;50.428;19.218;2023-02-11T04:17:22;1031.7;;;-2.5;73.2
41230;BME280;26964;50.428;19.218;2023-02-11T04:22:22;1031.7;;;-2.4;73.3
41230;BME280;26964;50.428;19.218;2023-02-11T04:27:23;1031.7;;;-2.3;73.2
41230;BME280;26964;50.428;19.218;2023-02-11T04:32:22;1031.8;;;-2.3;73.1
41230;BME280;26964;50.428;19.218;2023-02-11T04:37:23;1031.7;;;-2.3;73.1
41230;BME280;26964;50.428;19.218;2023-02-11T04:42:23;1031.7;;;-2.2;73.1
41230;BME280;26964;50.428;19.218;2023-02-11T04:47:23;1031.7;;;-2.2;73.1
41230;BME280;26964;50.428;19.218;2023-02-11T04:52:23;1031.6;;;-2.2;73.1
41230;BME280;26964;50.428;19.218;2023-02-11T04:57:23;1031.7;;;-2.2;73.1
41230;BME280;26964;50.428;19.218;2023-02-11T05:02:22;1031.7;;;-2.2;73.1
41230;BME280;26964;50.428;19.218;2023-02-11T05:07:22;1031.5;;;-2.1;73.1
41230;BME280;26964;50.428;19.218;2023-02-11T05:12:22;1031.6;;;-2.1;73.1
41230;BME280;26964;50.428;19.218;2023-02-11T05:17:23;1031.8;;;-2.1;73.1
41230;BME280;26964;50.428;19.218;2023-02-11T05:22:23;1031.8;;;-2.1;73.1
41230;BME280;26964;50.428;19.218;2023-02-11T05:27:22;1031.8;;;-2.1;73.1
41230;BME280;26964;50.428;19.218;2023-02-11T05:32:22;1031.8;;;-2.0;73.1
41230;BME280;26964;50.428;19.218;2023-02-11T05:37:23;1031.7;;;-2.0;73.2
41230;BME280;26964;50.428;19.218;2023-02-11T05:42:22;1031.3;;;-2.0;73.2
41230;BME280;26964;50.428;19.218;2023-02-11T05:47:23;1031.3;;;-2.0;73.2
41230;BME280;26964;50.428;19.218;2023-02-11T05:52:22;1031.1;;;-2.0;73.2
41230;BME280;26964;50.428;19.218;2023-02-11T05:57:22;1031.0;;;-2.0;73.2
41230;BME280;26964;50.428;19.218;2023-02-11T06:02:23;1030.8;;;-2.0;73.3
41230;BME280;26964;50.428;19.218;2023-02-11T06:07:34;1030.8;;;-2.0;73.3
41230;BME280;26964;50.428;19.218;2023-02-11T06:12:22;1030.7;;;-1.9;73.3
41230;BME280;26964;50.428;19.218;2023-02-11T06:17:24;1030.6;;;-1.9;73.5
41230;BME280;26964;50.428;19.218;2023-02-11T06:22:23;1030.7;;;-1.9;73.4
41230;BME280;26964;50.428;19.218;2023-02-11T06:27:22;1030.7;;;-1.9;73.5
41230;BME280;26964;50.428;19.218;2023-02-11T06:32:23;1030.8;;;-1.9;73.4
41230;BME280;26964;50.428;19.218;2023-02-11T06:37:23;1030.9;;;-1.9;73.5
41230;BME280;26964;50.428;19.218;2023-02-11T06:42:22;1030.9;;;-1.8;73.5
41230;BME280;26964;50.428;19.218;2023-02-11T06:47:22;1031.1;;;-1.8;73.4
41230;BME280;26964;50.428;19.218;2023-02-11T06:52:23;1031.0;;;-1.7;73.5
41230;BME280;26964;50.428;19.218;2023-02-11T06:57:22;1030.9;;;-1.7;73.5
41230;BME280;26964;50.428;19.218;2023-02-11T07:02:23;1030.9;;;-1.6;73.5
41230;BME280;26964;50.428;19.218;2023-02-11T07:07:23;1030.9;;;-1.5;73.5
41230;BME280;26964;50.428;19.218;2023-02-11T07:12:27;1030.8;;;-1.5;73.4
41230;BME280;26964;50.428;19.218;2023-02-11T07:17:22;1030.9;;;-1.5;73.4
41230;BME280;26964;50.428;19.218;2023-02-11T07:22:23;1030.8;;;-1.5;73.4
41230;BME280;26964;50.428;19.218;2023-02-11T07:27:23;1030.9;;;-1.4;73.4
41230;BME280;26964;50.428;19.218;2023-02-11T07:32:23;1030.8;;;-1.3;73.5
41230;BME280;26964;50.428;19.218;2023-02-11T07:37:22;1030.7;;;-1.2;73.5
41230;BME280;26964;50.428;19.218;2023-02-11T07:42:23;1030.5;;;-1.1;73.5
41230;BME280;26964;50.428;19.218;2023-02-11T07:47:23;1030.5;;;-1.0;73.4
41230;BME280;26964;50.428;19.218;2023-02-11T07:52:22;1030.5;;;-0.9;73.4
41230;BME280;26964;50.428;19.218;2023-02-11T07:57:23;1030.4;;;-0.7;73.3
41230;BME280;26964;50.428;19.218;2023-02-11T08:02:23;1030.3;;;-0.6;73.3
41230;BME280;26964;50.428;19.218;2023-02-11T08:07:22;1030.4;;;-0.5;73.3
41230;BME280;26964;50.428;19.218;2023-02-11T08:12:23;1030.4;;;-0.4;73.2
41230;BME280;26964;50.428;19.218;2023-02-11T08:17:22;1030.5;;;-0.3;73.2
41230;BME280;26964;50.428;19.218;2023-02-11T08:22:23;1030.5;;;-0.2;73.2
41230;BME280;26964;50.428;19.218;2023-02-11T08:27:23;1030.5;;;-0.1;73.1
41230;BME280;26964;50.428;19.218;2023-02-11T08:32:22;1030.5;;;-0.1;73.1
41230;BME280;26964;50.428;19.218;2023-02-11T08:37:22;1030.4;;;0.1;73.1
41230;BME280;26964;50.428;19.218;2023-02-11T08:42:23;1030.3;;;0.2;73.0
41230;BME280;26964;50.428;19.218;2023-02-11T08:47:22;1030.4;;;0.3;72.9
41230;BME280;26964;50.428;19.218;2023-02-11T08:52:22;1030.3;;;0.3;73.0
41230;BME280;26964;50.428;19.218;2023-02-11T08:57:22;1030.4;;;0.4;72.9
41230;BME280;26964;50.428;19.218;2023-02-11T09:02:22;1030.6;;;0.5;72.6
41230;BME280;26964;50.428;19.218;2023-02-11T09:07:22;1030.4;;;0.5;72.8
41230;BME280;26964;50.428;19.218;2023-02-11T09:12:22;1030.6;;;0.6;72.8
41230;BME280;26964;50.428;19.218;2023-02-11T09:17:22;1030.6;;;0.6;72.7
41230;BME280;26964;50.428;19.218;2023-02-11T09:22:22;1030.7;;;0.6;72.8
41230;BME280;26964;50.428;19.218;2023-02-11T09:27:22;1030.7;;;0.7;72.7
41230;BME280;26964;50.428;19.218;2023-02-11T09:32:22;1030.9;;;0.8;72.7
41230;BME280;26964;50.428;19.218;2023-02-11T09:37:31;1030.7;;;0.9;72.6
41230;BME280;26964;50.428;19.218;2023-02-11T09:47:27;1030.4;;;1.0;72.6
41230;BME280;26964;50.428;19.218;2023-02-11T09:57:28;1030.4;;;1.2;72.4
41230;BME280;26964;50.428;19.218;2023-02-11T10:02:25;1030.4;;;1.3;72.5
41230;BME280;26964;50.428;19.218;2023-02-11T10:07:27;1030.4;;;1.4;72.1
41230;BME280;26964;50.428;19.218;2023-02-11T10:17:28;1030.1;;;1.5;72.1
41230;BME280;26964;50.428;19.218;2023-02-11T10:22:24;1029.9;;;1.5;72.1
41230;BME280;26964;50.428;19.218;2023-02-11T10:27:27;1029.6;;;1.6;72.1
41230;BME280;26964;50.428;19.218;2023-02-11T10:32:27;1029.4;;;1.7;72.1
41230;BME280;26964;50.428;19.218;2023-02-11T10:37:22;1029.1;;;1.8;71.6
41230;BME280;26964;50.428;19.218;2023-02-11T10:42:23;1028.9;;;1.8;71.8
41230;BME280;26964;50.428;19.218;2023-02-11T10:47:24;1028.7;;;1.9;71.8
41230;BME280;26964;50.428;19.218;2023-02-11T10:52:23;1028.8;;;2.0;71.7
41230;BME280;26964;50.428;19.218;2023-02-11T11:02:23;1028.9;;;2.0;71.7
41230;BME280;26964;50.428;19.218;2023-02-11T11:07:26;1028.9;;;2.0;71.6
41230;BME280;26964;50.428;19.218;2023-02-11T11:12:25;1029.0;;;1.9;71.7
41230;BME280;26964;50.428;19.218;2023-02-11T11:17:21;1029.0;;;1.9;71.7
41230;BME280;26964;50.428;19.218;2023-02-11T11:22:22;1028.8;;;1.8;71.9
41230;BME280;26964;50.428;19.218;2023-02-11T11:27:23;1028.8;;;1.9;72.0
41230;BME280;26964;50.428;19.218;2023-02-11T11:32:24;1028.8;;;1.9;71.9
41230;BME280;26964;50.428;19.218;2023-02-11T11:37:25;1028.7;;;1.9;72.0
41230;BME280;26964;50.428;19.218;2023-02-11T11:42:25;1028.7;;;1.8;72.1
41230;BME280;26964;50.428;19.218;2023-02-11T11:57:26;1029.0;;;1.7;72.4
41230;BME280;26964;50.428;19.218;2023-02-11T12:07:29;1028.9;;;1.7;72.4
41230;BME280;26964;50.428;19.218;2023-02-11T12:12:28;1029.0;;;1.8;72.5
41230;BME280;26964;50.428;19.218;2023-02-11T12:27:30;1028.7;;;1.7;72.9
41230;BME280;26964;50.428;19.218;2023-02-11T12:32:26;1028.5;;;1.7;73.0
41230;BME280;26964;50.428;19.218;2023-02-11T12:47:27;1028.2;;;1.5;73.5
41230;BME280;26964;50.428;19.218;2023-02-11T12:57:25;1028.4;;;1.3;73.7
41230;BME280;26964;50.428;19.218;2023-02-11T13:07:26;1028.2;;;1.2;74.0
41230;BME280;26964;50.428;19.218;2023-02-11T13:12:22;1028.1;;;1.2;74.0
41230;BME280;26964;50.428;19.218;2023-02-11T13:17:27;1027.9;;;1.1;74.0
41230;BME280;26964;50.428;19.218;2023-02-11T13:22:26;1027.6;;;1.1;74.2
41230;BME280;26964;50.428;19.218;2023-02-11T13:32:22;1027.2;;;1.0;74.6
41230;BME280;26964;50.428;19.218;2023-02-11T13:37:24;1027.5;;;1.0;74.7
41230;BME280;26964;50.428;19.218;2023-02-11T13:42:21;1027.5;;;1.0;74.8
41230;BME280;26964;50.428;19.218;2023-02-11T13:47:24;1027.7;;;1.0;74.9
41230;BME280;26964;50.428;19.218;2023-02-11T13:52:24;1027.9;;;1.0;75.0
41230;BME280;26964;50.428;19.218;2023-02-11T14:02:26;1028.0;;;1.0;75.2
41230;BME280;26964;50.428;19.218;2023-02-11T14:07:26;1028.0;;;1.0;75.3
41230;BME280;26964;50.428;19.218;2023-02-11T14:12:28;1028.3;;;1.1;75.3
41230;BME280;26964;50.428;19.218;2023-02-11T14:22:24;1028.3;;;1.0;75.5
41230;BME280;26964;50.428;19.218;2023-02-11T14:42:24;1028.2;;;1.0;75.9
41230;BME280;26964;50.428;19.218;2023-02-11T14:47:26;1028.2;;;1.0;76.0
41230;BME280;26964;50.428;19.218;2023-02-11T14:52:25;1028.2;;;1.0;76.2
41230;BME280;26964;50.428;19.218;2023-02-11T14:57:22;1028.3;;;1.0;76.2
41230;BME280;26964;50.428;19.218;2023-02-11T15:02:22;1028.2;;;1.0;76.6
41230;BME280;26964;50.428;19.218;2023-02-11T15:07:21;1028.3;;;1.0;76.5
41230;BME280;26964;50.428;19.218;2023-02-11T15:12:24;1028.3;;;1.0;76.5
41230;BME280;26964;50.428;19.218;2023-02-11T15:17:22;1028.4;;;1.0;76.6
41230;BME280;26964;50.428;19.218;2023-02-11T15:22:25;1028.4;;;1.0;76.8
41230;BME280;26964;50.428;19.218;2023-02-11T15:27:22;1028.4;;;1.0;76.7
41230;BME280;26964;50.428;19.218;2023-02-11T15:32:23;1028.4;;;1.0;76.8
41230;BME280;26964;50.428;19.218;2023-02-11T15:37:23;1028.5;;;1.0;76.9
41230;BME280;26964;50.428;19.218;2023-02-11T15:42:24;1028.6;;;1.0;76.9
41230;BME280;26964;50.428;19.218;2023-02-11T15:47:22;1028.6;;;0.9;77.0
41230;BME280;26964;50.428;19.218;2023-02-11T15:52:24;1028.6;;;0.9;77.2
41230;BME280;26964;50.428;19.218;2023-02-11T15:57:21;1028.7;;;0.9;77.2
41230;BME280;26964;50.428;19.218;2023-02-11T16:02:27;1028.7;;;0.9;77.2
41230;BME280;26964;50.428;19.218;2023-02-11T16:12:23;1028.6;;;0.9;77.3
41230;BME280;26964;50.428;19.218;2023-02-11T16:17:23;1028.7;;;0.8;77.4
41230;BME280;26964;50.428;19.218;2023-02-11T16:22:25;1028.7;;;0.8;77.4
41230;BME280;26964;50.428;19.218;2023-02-11T16:27:24;1028.8;;;0.8;77.4
41230;BME280;26964;50.428;19.218;2023-02-11T16:32:23;1028.8;;;0.8;77.5
41230;BME280;26964;50.428;19.218;2023-02-11T16:37:22;1028.9;;;0.8;77.6
41230;BME280;26964;50.428;19.218;2023-02-11T16:42:21;1028.8;;;0.7;77.7
41230;BME280;26964;50.428;19.218;2023-02-11T16:47:23;1028.8;;;0.8;77.7
41230;BME280;26964;50.428;19.218;2023-02-11T16:52:22;1028.8;;;0.8;77.8
41230;BME280;26964;50.428;19.218;2023-02-11T16:57:23;1028.9;;;0.8;78.0
41230;BME280;26964;50.428;19.218;2023-02-11T17:02:25;1028.9;;;0.9;78.0
41230;BME280;26964;50.428;19.218;2023-02-11T17:07:21;1028.9;;;0.9;78.1
41230;BME280;26964;50.428;19.218;2023-02-11T17:12:21;1028.8;;;0.9;78.2
41230;BME280;26964;50.428;19.218;2023-02-11T17:17:21;1029.0;;;0.9;78.2
41230;BME280;26964;50.428;19.218;2023-02-11T17:22:21;1029.0;;;1.0;78.3
41230;BME280;26964;50.428;19.218;2023-02-11T17:27:22;1028.9;;;1.0;78.4
41230;BME280;26964;50.428;19.218;2023-02-11T17:32:21;1028.9;;;1.0;78.5
41230;BME280;26964;50.428;19.218;2023-02-11T17:37:21;1029.0;;;1.1;78.6
41230;BME280;26964;50.428;19.218;2023-02-11T17:42:22;1029.0;;;1.1;78.7
41230;BME280;26964;50.428;19.218;2023-02-11T17:47:22;1028.9;;;1.2;78.7
41230;BME280;26964;50.428;19.218;2023-02-11T17:52:22;1029.0;;;1.3;78.8
41230;BME280;26964;50.428;19.218;2023-02-11T17:57:21;1029.0;;;1.3;78.8
41230;BME280;26964;50.428;19.218;2023-02-11T18:02:21;1029.1;;;1.3;78.9
41230;BME280;26964;50.428;19.218;2023-02-11T18:07:21;1029.0;;;1.4;79.0
41230;BME280;26964;50.428;19.218;2023-02-11T18:12:22;1029.0;;;1.4;79.0
41230;BME280;26964;50.428;19.218;2023-02-11T18:17:21;1029.2;;;1.5;79.2
41230;BME280;26964;50.428;19.218;2023-02-11T18:22:21;1029.1;;;1.6;79.4
41230;BME280;26964;50.428;19.218;2023-02-11T18:27:21;1029.2;;;1.6;79.5
41230;BME280;26964;50.428;19.218;2023-02-11T18:32:21;1029.2;;;1.7;79.7
41230;BME280;26964;50.428;19.218;2023-02-11T18:37:20;1029.2;;;1.8;79.7
41230;BME280;26964;50.428;19.218;2023-02-11T18:42:21;1029.2;;;1.9;80.1
41230;BME280;26964;50.428;19.218;2023-02-11T18:47:21;1029.2;;;1.9;79.9
41230;BME280;26964;50.428;19.218;2023-02-11T18:52:22;1029.3;;;1.9;80.2
41230;BME280;26964;50.428;19.218;2023-02-11T18:57:21;1029.4;;;2.0;79.9
41230;BME280;26964;50.428;19.218;2023-02-11T19:02:21;1029.3;;;2.0;80.1
41230;BME280;26964;50.428;19.218;2023-02-11T19:07:21;1029.4;;;2.0;80.0
41230;BME280;26964;50.428;19.218;2023-02-11T19:12:21;1029.6;;;2.0;80.3
41230;BME280;26964;50.428;19.218;2023-02-11T19:17:21;1029.6;;;2.0;80.2
41230;BME280;26964;50.428;19.218;2023-02-11T19:22:21;1029.6;;;2.0;80.2
41230;BME280;26964;50.428;19.218;2023-02-11T19:27:21;1029.6;;;2.0;80.2
41230;BME280;26964;50.428;19.218;2023-02-11T19:32:22;1029.8;;;2.0;80.3
41230;BME280;26964;50.428;19.218;2023-02-11T19:37:21;1029.7;;;2.0;80.3
41230;BME280;26964;50.428;19.218;2023-02-11T19:42:21;1029.7;;;2.0;80.4
41230;BME280;26964;50.428;19.218;2023-02-11T19:47:21;1029.7;;;2.0;80.3
41230;BME280;26964;50.428;19.218;2023-02-11T19:52:21;1029.7;;;2.0;80.5
41230;BME280;26964;50.428;19.218;2023-02-11T19:57:21;1029.6;;;2.1;80.7
41230;BME280;26964;50.428;19.218;2023-02-11T20:02:20;1029.7;;;2.1;80.7
41230;BME280;26964;50.428;19.218;2023-02-11T20:07:22;1029.7;;;2.1;80.8
41230;BME280;26964;50.428;19.218;2023-02-11T20:12:20;1029.6;;;2.1;80.7
41230;BME280;26964;50.428;19.218;2023-02-11T20:17:21;1029.7;;;2.1;80.9
41230;BME280;26964;50.428;19.218;2023-02-11T20:22:20;1029.7;;;2.2;80.9
41230;BME280;26964;50.428;19.218;2023-02-11T20:27:21;1029.9;;;2.2;81.1
41230;BME280;26964;50.428;19.218;2023-02-11T20:32:20;1029.8;;;2.2;81.0
41230;BME280;26964;50.428;19.218;2023-02-11T20:37:20;1029.9;;;2.2;81.0
41230;BME280;26964;50.428;19.218;2023-02-11T20:42:20;1029.9;;;2.2;81.0
41230;BME280;26964;50.428;19.218;2023-02-11T20:47:21;1030.1;;;2.2;81.0
41230;BME280;26964;50.428;19.218;2023-02-11T20:52:23;1030.0;;;2.2;81.0
41230;BME280;26964;50.428;19.218;2023-02-11T20:57:22;1030.0;;;2.2;81.0
41230;BME280;26964;50.428;19.218;2023-02-11T21:02:21;1030.1;;;2.2;81.0
41230;BME280;26964;50.428;19.218;2023-02-11T21:07:21;1030.1;;;2.2;81.0
41230;BME280;26964;50.428;19.218;2023-02-11T21:12:21;1030.1;;;2.2;81.1
41230;BME280;26964;50.428;19.218;2023-02-11T21:17:21;1030.2;;;2.2;81.3
41230;BME280;26964;50.428;19.218;2023-02-11T21:22:21;1030.3;;;2.3;81.3
41230;BME280;26964;50.428;19.218;2023-02-11T21:27:21;1030.2;;;2.3;81.3
41230;BME280;26964;50.428;19.218;2023-02-11T21:32:21;1030.3;;;2.3;81.3
41230;BME280;26964;50.428;19.218;2023-02-11T21:37:21;1030.4;;;2.3;81.4
41230;BME280;26964;50.428;19.218;2023-02-11T21:47:21;1030.6;;;2.3;81.4
41230;BME280;26964;50.428;19.218;2023-02-11T21:52:21;1030.6;;;2.3;81.4
41230;BME280;26964;50.428;19.218;2023-02-11T21:57:21;1030.7;;;2.3;81.6
41230;BME280;26964;50.428;19.218;2023-02-11T22:02:21;1030.8;;;2.4;81.5
41230;BME280;26964;50.428;19.218;2023-02-11T22:07:21;1030.7;;;2.4;81.6
41230;BME280;26964;50.428;19.218;2023-02-11T22:12:21;1030.8;;;2.4;81.7
41230;BME280;26964;50.428;19.218;2023-02-11T22:17:21;1030.9;;;2.4;81.6
41230;BME280;26964;50.428;19.218;2023-02-11T22:22:21;1031.0;;;2.4;81.5
41230;BME280;26964;50.428;19.218;2023-02-11T22:27:21;1031.0;;;2.4;81.6
41230;BME280;26964;50.428;19.218;2023-02-11T22:32:21;1031.2;;;2.4;81.6
41230;BME280;26964;50.428;19.218;2023-02-11T22:37:21;1031.2;;;2.4;81.7
41230;BME280;26964;50.428;19.218;2023-02-11T22:42:21;1031.3;;;2.4;81.6
41230;BME280;26964;50.428;19.218;2023-02-11T22:47:21;1031.4;;;2.4;81.6
41230;BME280;26964;50.428;19.218;2023-02-11T22:52:21;1031.4;;;2.4;81.6
41230;BME280;26964;50.428;19.218;2023-02-11T22:57:21;1031.4;;;2.4;81.8
41230;BME280;26964;50.428;19.218;2023-02-11T23:02:21;1031.5;;;2.5;81.9
41230;BME280;26964;50.428;19.218;2023-02-11T23:07:21;1031.4;;;2.5;81.9
41230;BME280;26964;50.428;19.218;2023-02-11T23:12:21;1031.5;;;2.5;81.8
41230;BME280;26964;50.428;19.218;2023-02-11T23:17:20;1031.5;;;2.5;81.9
41230;BME280;26964;50.428;19.218;2023-02-11T23:22:20;1031.5;;;2.5;81.9
41230;BME280;26964;50.428;19.218;2023-02-11T23:27:21;1031.6;;;2.5;82.0
41230;BME280;26964;50.428;19.218;2023-02-11T23:32:22;1031.6;;;2.5;82.0
41230;BME280;26964;50.428;19.218;2023-02-11T23:42:21;1031.7;;;2.5;82.0
41230;BME280;26964;50.428;19.218;2023-02-11T23:47:21;1031.6;;;2.6;82.2
41230;BME280;26964;50.428;19.218;2023-02-11T23:52:21;1031.8;;;2.6;82.2
41230;BME280;26964;50.428;19.218;2023-02-11T23:57:21;1031.7;;;2.6;82.2
